sensor_id;sensor_type;location;lat;lon;timestamp;pressure;altitude;pressure_sealevel;temperature;humidity
42621;BME280;28252;53.336;-6.298;2023-05-22T00:00:32;101990.19;;;22.41;100.00
42621;BME280;28252;53.336;-6.298;2023-05-22T00:01:08;101992.75;;;22.42;100.00
42621;BME280;28252;53.336;-6.298;2023-05-22T00:01:39;101991.06;;;22.41;100.00
42621;BME280;28252;53.336;-6.298;2023-05-22T00:02:14;101992.91;;;22.41;100.00
42621;BME280;28252;53.336;-6.298;2023-05-22T00:02:47;101993.78;;;22.41;100.00
42621;BME280;28252;53.336;-6.298;2023-05-22T00:03:22;101985.63;;;22.41;100.00
42621;BME280;28252;53.336;-6.298;2023-05-22T00:03:56;101991.91;;;22.42;100.00
42621;BME280;28252;53.336;-6.298;2023-05-22T00:04:27;101986.47;;;22.42;100.00
42621;BME280;28252;53.336;-6.298;2023-05-22T00:05:02;101987.47;;;22.41;100.00
42621;BME280;28252;53.336;-6.298;2023-05-22T00:05:38;101986.63;;;22.40;100.00
42621;BME280;28252;53.336;-6.298;2023-05-22T00:06:10;101984.75;;;22.41;100.00
42621;BME280;28252;53.336;-6.298;2023-05-22T00:06:46;101980.34;;;22.40;100.00
42621;BME280;28252;53.336;-6.298;2023-05-22T00:07:22;101989.34;;;22.40;100.00
42621;BME280;28252;53.336;-6.298;2023-05-22T00:07:57;101983.91;;;22.40;100.00
42621;BME280;28252;53.336;-6.298;2023-05-22T00:08:30;101982.22;;;22.39;100.00
42621;BME280;28252;53.336;-6.298;2023-05-22T00:09:03;101987.47;;;22.41;100.00
42621;BME280;28252;53.336;-6.298;2023-05-22T00:09:36;101989.34;;;22.40;100.00
42621;BME280;28252;53.336;-6.298;2023-05-22T00:10:10;101984.94;;;22.39;100.00
42621;BME280;28252;53.336;-6.298;2023-05-22T00:10:43;101982.22;;;22.39;100.00
42621;BME280;28252;53.336;-6.298;2023-05-22T00:11:14;101994.78;;;22.40;100.00
42621;BME280;28252;53.336;-6.298;2023-05-22T00:11:47;101981.19;;;22.40;100.00
42621;BME280;28252;53.336;-6.298;2023-05-22T00:12:23;101987.66;;;22.39;100.00
42621;BME280;28252;53.336;-6.298;2023-05-22T00:12:56;101993.09;;;22.39;100.00
42621;BME280;28252;53.336;-6.298;2023-05-22T00:13:29;101990.38;;;22.39;100.00
42621;BME280;28252;53.336;-6.298;2023-05-22T00:14:04;101989.34;;;22.40;100.00
42621;BME280;28252;53.336;-6.298;2023-05-22T00:14:35;101987.66;;;22.39;100.00
42621;BME280;28252;53.336;-6.298;2023-05-22T00:15:12;101992.06;;;22.40;100.00
42621;BME280;28252;53.336;-6.298;2023-05-22T00:15:45;101986.78;;;22.38;100.00
42621;BME280;28252;53.336;-6.298;2023-05-22T00:16:20;101991.38;;;22.38;100.00
42621;BME280;28252;53.336;-6.298;2023-05-22T00:16:51;101985.94;;;22.38;100.00
42621;BME280;28252;53.336;-6.298;2023-05-22T00:17:23;101993.09;;;22.39;100.00
42621;BME280;28252;53.336;-6.298;2023-05-22T00:17:56;101985.94;;;22.38;100.00
42621;BME280;28252;53.336;-6.298;2023-05-22T00:18:29;101989.66;;;22.37;100.00
42621;BME280;28252;53.336;-6.298;2023-05-22T00:19:02;101985.94;;;22.38;100.00
42621;BME280;28252;53.336;-6.298;2023-05-22T00:19:34;101989.50;;;22.38;100.00
42621;BME280;28252;53.336;-6.298;2023-05-22T00:20:09;101989.50;;;22.38;100.00
42621;BME280;28252;53.336;-6.298;2023-05-22T00:20:40;101985.09;;;22.37;100.00
42621;BME280;28252;53.336;-6.298;2023-05-22T00:21:18;101985.94;;;22.38;100.00
42621;BME280;28252;53.336;-6.298;2023-05-22T00:21:51;101989.66;;;22.37;100.00
42621;BME280;28252;53.336;-6.298;2023-05-22T00:22:25;101991.38;;;22.38;100.00
42621;BME280;28252;53.336;-6.298;2023-05-22T00:23:08;101986.09;;;22.36;100.00
42621;BME280;28252;53.336;-6.298;2023-05-22T00:23:41;101988.81;;;22.36;100.00
42621;BME280;28252;53.336;-6.298;2023-05-22T00:24:17;101988.81;;;22.36;100.00
42621;BME280;28252;53.336;-6.298;2023-05-22T00:24:48;101987.97;;;22.36;100.00
42621;BME280;28252;53.336;-6.298;2023-05-22T00:25:21;101985.25;;;22.36;100.00
42621;BME280;28252;53.336;-6.298;2023-05-22T00:25:54;101987.97;;;22.36;100.00
42621;BME280;28252;53.336;-6.298;2023-05-22T00:26:30;101987.97;;;22.36;100.00
42621;BME280;28252;53.336;-6.298;2023-05-22T00:27:01;101983.38;;;22.36;100.00
42621;BME280;28252;53.336;-6.298;2023-05-22T00:27:32;101982.53;;;22.36;100.00
42621;BME280;28252;53.336;-6.298;2023-05-22T00:28:11;101983.53;;;22.35;100.00
42621;BME280;28252;53.336;-6.298;2023-05-22T00:28:49;101986.25;;;22.35;100.00
42621;BME280;28252;53.336;-6.298;2023-05-22T00:29:22;101985.41;;;22.34;100.00
42621;BME280;28252;53.336;-6.298;2023-05-22T00:29:56;101989.78;;;22.35;100.00
42621;BME280;28252;53.336;-6.298;2023-05-22T00:30:30;101991.66;;;22.35;100.00
42621;BME280;28252;53.336;-6.298;2023-05-22T00:31:07;101985.41;;;22.34;100.00
42621;BME280;28252;53.336;-6.298;2023-05-22T00:31:43;101985.41;;;22.34;100.00
42621;BME280;28252;53.336;-6.298;2023-05-22T00:36:48;101985.69;;;22.31;100.00
42621;BME280;28252;53.336;-6.298;2023-05-22T00:37:19;101985.69;;;22.31;100.00
42621;BME280;28252;53.336;-6.298;2023-05-22T00:37:55;101985.69;;;22.31;100.00
42621;BME280;28252;53.336;-6.298;2023-05-22T00:38:33;101982.13;;;22.31;100.00
42621;BME280;28252;53.336;-6.298;2023-05-22T00:39:06;101979.44;;;22.31;100.00
42621;BME280;28252;53.336;-6.298;2023-05-22T00:39:43;101981.13;;;22.32;100.00
42621;BME280;28252;53.336;-6.298;2023-05-22T00:40:16;101984.84;;;22.31;100.00
42621;BME280;28252;53.336;-6.298;2023-05-22T00:40:47;101984.84;;;22.31;100.00
42621;BME280;28252;53.336;-6.298;2023-05-22T00:41:22;101982.13;;;22.31;100.00
42621;BME280;28252;53.336;-6.298;2023-05-22T00:41:58;101984.84;;;22.31;100.00
42621;BME280;28252;53.336;-6.298;2023-05-22T00:42:34;101984.84;;;22.31;100.00
42621;BME280;28252;53.336;-6.298;2023-05-22T00:43:07;101984.84;;;22.31;100.00
42621;BME280;28252;53.336;-6.298;2023-05-22T00:43:41;101988.56;;;22.30;100.00
42621;BME280;28252;53.336;-6.298;2023-05-22T00:44:15;101982.13;;;22.31;100.00
42621;BME280;28252;53.336;-6.298;2023-05-22T00:44:48;101977.69;;;22.30;100.00
42621;BME280;28252;53.336;-6.298;2023-05-22T00:45:22;101982.97;;;22.31;100.00
42621;BME280;28252;53.336;-6.298;2023-05-22T00:45:58;101977.69;;;22.30;100.00
42621;BME280;28252;53.336;-6.298;2023-05-22T00:46:33;101978.53;;;22.30;100.00
42621;BME280;28252;53.336;-6.298;2023-05-22T00:47:07;101983.97;;;22.30;100.00
42621;BME280;28252;53.336;-6.298;2023-05-22T00:49:01;101981.44;;;22.29;100.00
42621;BME280;28252;53.336;-6.298;2023-05-22T00:49:35;101990.28;;;22.31;100.00
42621;BME280;28252;53.336;-6.298;2023-05-22T00:50:06;101985.84;;;22.30;100.00
42621;BME280;28252;53.336;-6.298;2023-05-22T00:50:41;101979.56;;;22.29;100.00
42621;BME280;28252;53.336;-6.298;2023-05-22T00:51:12;101986.88;;;22.29;100.00
42621;BME280;28252;53.336;-6.298;2023-05-22T00:51:46;101981.44;;;22.29;100.00
42621;BME280;28252;53.336;-6.298;2023-05-22T00:52:17;101985.84;;;22.30;100.00
42621;BME280;28252;53.336;-6.298;2023-05-22T00:52:53;101982.28;;;22.29;100.00
42621;BME280;28252;53.336;-6.298;2023-05-22T00:53:25;101989.41;;;22.30;100.00
42621;BME280;28252;53.336;-6.298;2023-05-22T00:54:02;101987.72;;;22.29;100.00
42621;BME280;28252;53.336;-6.298;2023-05-22T00:54:36;101986.00;;;22.28;100.00
42621;BME280;28252;53.336;-6.298;2023-05-22T00:55:08;101986.88;;;22.29;100.00
42621;BME280;28252;53.336;-6.298;2023-05-22T00:55:41;101986.88;;;22.29;100.00
42621;BME280;28252;53.336;-6.298;2023-05-22T00:56:18;101985.16;;;22.28;100.00
42621;BME280;28252;53.336;-6.298;2023-05-22T00:56:55;101986.00;;;22.28;100.00
42621;BME280;28252;53.336;-6.298;2023-05-22T00:57:29;101985.16;;;22.28;100.00
42621;BME280;28252;53.336;-6.298;2023-05-22T00:58:05;101985.16;;;22.28;100.00
42621;BME280;28252;53.336;-6.298;2023-05-22T00:58:40;101979.72;;;22.28;100.00
42621;BME280;28252;53.336;-6.298;2023-05-22T00:59:13;101981.56;;;22.27;100.00
42621;BME280;28252;53.336;-6.298;2023-05-22T00:59:49;101985.16;;;22.28;100.00
42621;BME280;28252;53.336;-6.298;2023-05-22T01:00:24;101983.28;;;22.28;100.00
42621;BME280;28252;53.336;-6.298;2023-05-22T01:00:57;101985.16;;;22.28;100.00
42621;BME280;28252;53.336;-6.298;2023-05-22T01:01:29;101979.72;;;22.28;100.00
42621;BME280;28252;53.336;-6.298;2023-05-22T01:02:05;101978.84;;;22.27;100.00
42621;BME280;28252;53.336;-6.298;2023-05-22T01:02:36;101982.56;;;22.26;100.00
42621;BME280;28252;53.336;-6.298;2023-05-22T01:03:08;101974.28;;;22.28;100.00
42621;BME280;28252;53.336;-6.298;2023-05-22T01:03:39;101985.16;;;22.28;100.00
42621;BME280;28252;53.336;-6.298;2023-05-22T01:04:22;101980.69;;;22.27;100.00
42621;BME280;28252;53.336;-6.298;2023-05-22T01:04:55;101977.13;;;22.26;100.00
42621;BME280;28252;53.336;-6.298;2023-05-22T01:05:27;101981.72;;;22.26;100.00
42621;BME280;28252;53.336;-6.298;2023-05-22T01:05:58;101976.28;;;22.26;100.00
42621;BME280;28252;53.336;-6.298;2023-05-22T01:06:29;101980.69;;;22.27;100.00
42621;BME280;28252;53.336;-6.298;2023-05-22T01:07:06;101977.97;;;22.27;100.00
42621;BME280;28252;53.336;-6.298;2023-05-22T01:07:45;101981.72;;;22.26;100.00
42621;BME280;28252;53.336;-6.298;2023-05-22T01:08:19;101977.28;;;22.25;100.00
42621;BME280;28252;53.336;-6.298;2023-05-22T01:08:52;101987.13;;;22.26;100.00
42621;BME280;28252;53.336;-6.298;2023-05-22T01:09:25;101971.84;;;22.25;100.00
42621;BME280;28252;53.336;-6.298;2023-05-22T01:09:58;101980.84;;;22.25;100.00
42621;BME280;28252;53.336;-6.298;2023-05-22T01:10:35;101977.28;;;22.25;100.00
42621;BME280;28252;53.336;-6.298;2023-05-22T01:11:09;101980.84;;;22.25;100.00
42621;BME280;28252;53.336;-6.298;2023-05-22T01:12:37;101974.56;;;22.25;100.00
42621;BME280;28252;53.336;-6.298;2023-05-22T01:13:30;101973.72;;;22.24;100.00
42621;BME280;28252;53.336;-6.298;2023-05-22T01:14:28;101977.28;;;22.25;100.00
42621;BME280;28252;53.336;-6.298;2023-05-22T01:15:08;101985.41;;;22.25;100.00
42621;BME280;28252;53.336;-6.298;2023-05-22T01:18:01;101988.28;;;22.23;100.00
42621;BME280;28252;53.336;-6.298;2023-05-22T01:20:18;101980.13;;;22.23;100.00
42621;BME280;28252;53.336;-6.298;2023-05-22T01:20:56;101979.28;;;22.23;100.00
42621;BME280;28252;53.336;-6.298;2023-05-22T01:22:11;101984.72;;;22.23;100.00
42621;BME280;28252;53.336;-6.298;2023-05-22T01:23:59;101986.59;;;22.22;100.00
42621;BME280;28252;53.336;-6.298;2023-05-22T01:25:25;101976.72;;;22.21;100.00
42621;BME280;28252;53.336;-6.298;2023-05-22T01:29:14;101984.03;;;22.20;100.00
42621;BME280;28252;53.336;-6.298;2023-05-22T01:31:12;101985.03;;;22.19;100.00
42621;BME280;28252;53.336;-6.298;2023-05-22T01:31:45;101985.03;;;22.19;100.00
42621;BME280;28252;53.336;-6.298;2023-05-22T01:32:19;101984.03;;;22.20;100.00
42621;BME280;28252;53.336;-6.298;2023-05-22T01:32:53;101984.03;;;22.20;100.00
42621;BME280;28252;53.336;-6.298;2023-05-22T01:33:32;101994.00;;;22.20;100.00
42621;BME280;28252;53.336;-6.298;2023-05-22T01:34:14;101987.75;;;22.19;100.00
42621;BME280;28252;53.336;-6.298;2023-05-22T01:34:49;101982.31;;;22.19;100.00
42621;BME280;28252;53.336;-6.298;2023-05-22T01:35:23;101987.75;;;22.19;100.00
42621;BME280;28252;53.336;-6.298;2023-05-22T01:35:58;101981.47;;;22.19;100.00
42621;BME280;28252;53.336;-6.298;2023-05-22T01:36:38;101977.72;;;22.20;100.00
42621;BME280;28252;53.336;-6.298;2023-05-22T01:37:12;101982.31;;;22.19;100.00
42621;BME280;28252;53.336;-6.298;2023-05-22T01:37:43;101979.59;;;22.19;100.00
42621;BME280;28252;53.336;-6.298;2023-05-22T01:38:19;101983.16;;;22.20;100.00
42621;BME280;28252;53.336;-6.298;2023-05-22T01:38:56;101986.88;;;22.19;100.00
42621;BME280;28252;53.336;-6.298;2023-05-22T01:39:33;101994.88;;;22.20;100.00
42621;BME280;28252;53.336;-6.298;2023-05-22T01:40:07;101987.75;;;22.19;100.00
42621;BME280;28252;53.336;-6.298;2023-05-22T01:40:43;101993.16;;;22.19;100.00
42621;BME280;28252;53.336;-6.298;2023-05-22T01:41:20;101981.47;;;22.19;100.00
42621;BME280;28252;53.336;-6.298;2023-05-22T01:41:54;101986.00;;;22.18;100.00
42621;BME280;28252;53.336;-6.298;2023-05-22T01:42:27;101987.75;;;22.19;100.00
42621;BME280;28252;53.336;-6.298;2023-05-22T01:43:01;101986.00;;;22.18;100.00
42621;BME280;28252;53.336;-6.298;2023-05-22T01:43:37;101985.03;;;22.19;100.00
42621;BME280;28252;53.336;-6.298;2023-05-22T01:44:08;101987.88;;;22.18;100.00
42621;BME280;28252;53.336;-6.298;2023-05-22T01:44:41;101991.44;;;22.18;100.00
42621;BME280;28252;53.336;-6.298;2023-05-22T01:45:14;101984.31;;;22.17;100.00
42621;BME280;28252;53.336;-6.298;2023-05-22T01:45:51;101990.59;;;22.18;100.00
42621;BME280;28252;53.336;-6.298;2023-05-22T01:46:27;101986.00;;;22.18;100.00
42621;BME280;28252;53.336;-6.298;2023-05-22T01:47:01;101987.88;;;22.18;100.00
42621;BME280;28252;53.336;-6.298;2023-05-22T01:47:34;101996.03;;;22.18;100.00
42621;BME280;28252;53.336;-6.298;2023-05-22T01:48:08;101996.88;;;22.18;100.00
42621;BME280;28252;53.336;-6.298;2023-05-22T01:48:43;101990.59;;;22.18;100.00
42621;BME280;28252;53.336;-6.298;2023-05-22T01:49:18;101995.19;;;22.17;100.00
42621;BME280;28252;53.336;-6.298;2023-05-22T01:49:51;101995.19;;;22.17;100.00
42621;BME280;28252;53.336;-6.298;2023-05-22T01:50:25;101993.31;;;22.18;100.00
42621;BME280;28252;53.336;-6.298;2023-05-22T01:52:01;101992.47;;;22.17;100.00
42621;BME280;28252;53.336;-6.298;2023-05-22T01:52:35;101992.47;;;22.17;100.00
42621;BME280;28252;53.336;-6.298;2023-05-22T01:54:59;101990.75;;;22.16;100.00
42621;BME280;28252;53.336;-6.298;2023-05-22T01:56:15;101993.47;;;22.16;100.00
42621;BME280;28252;53.336;-6.298;2023-05-22T01:56:58;101991.78;;;22.15;100.00
42621;BME280;28252;53.336;-6.298;2023-05-22T01:57:49;101995.47;;;22.14;100.00
42621;BME280;28252;53.336;-6.298;2023-05-22T01:59:09;101991.78;;;22.15;100.00
42621;BME280;28252;53.336;-6.298;2023-05-22T01:59:51;101992.75;;;22.14;100.00
42621;BME280;28252;53.336;-6.298;2023-05-22T02:00:29;101994.63;;;22.14;100.00
42621;BME280;28252;53.336;-6.298;2023-05-22T02:01:01;101995.63;;;22.13;100.00
42621;BME280;28252;53.336;-6.298;2023-05-22T02:01:33;101990.06;;;22.14;100.00
42621;BME280;28252;53.336;-6.298;2023-05-22T02:02:07;101990.06;;;22.14;100.00
42621;BME280;28252;53.336;-6.298;2023-05-22T02:02:55;101988.34;;;22.13;100.00
42621;BME280;28252;53.336;-6.298;2023-05-22T02:03:30;101996.47;;;22.13;100.00
42621;BME280;28252;53.336;-6.298;2023-05-22T02:04:03;101994.63;;;22.14;100.00
42621;BME280;28252;53.336;-6.298;2023-05-22T02:04:38;101989.22;;;22.14;100.00
42621;BME280;28252;53.336;-6.298;2023-05-22T02:05:14;101992.06;;;22.12;100.00
42621;BME280;28252;53.336;-6.298;2023-05-22T02:05:49;101992.06;;;22.12;100.00
42621;BME280;28252;53.336;-6.298;2023-05-22T02:06:29;101983.94;;;22.12;100.00
42621;BME280;28252;53.336;-6.298;2023-05-22T02:07:02;101997.50;;;22.12;100.00
42621;BME280;28252;53.336;-6.298;2023-05-22T02:07:36;101992.06;;;22.12;100.00
42621;BME280;28252;53.336;-6.298;2023-05-22T02:08:10;101994.78;;;22.12;100.00
42621;BME280;28252;53.336;-6.298;2023-05-22T02:08:48;101993.75;;;22.13;100.00
42621;BME280;28252;53.336;-6.298;2023-05-22T02:09:22;101991.22;;;22.12;100.00
42621;BME280;28252;53.336;-6.298;2023-05-22T02:09:57;101993.94;;;22.12;100.00
42621;BME280;28252;53.336;-6.298;2023-05-22T02:10:31;101993.06;;;22.11;100.00
42621;BME280;28252;53.336;-6.298;2023-05-22T02:11:06;101992.06;;;22.12;100.00
42621;BME280;28252;53.336;-6.298;2023-05-22T02:11:41;101994.09;;;22.10;100.00
42621;BME280;28252;53.336;-6.298;2023-05-22T02:12:15;101993.94;;;22.12;100.00
42621;BME280;28252;53.336;-6.298;2023-05-22T02:12:48;101995.78;;;22.11;100.00
42621;BME280;28252;53.336;-6.298;2023-05-22T02:13:22;101995.78;;;22.11;100.00
42621;BME280;28252;53.336;-6.298;2023-05-22T02:13:54;102000.34;;;22.11;100.00
42621;BME280;28252;53.336;-6.298;2023-05-22T02:14:30;101999.50;;;22.10;100.00
42621;BME280;28252;53.336;-6.298;2023-05-22T02:15:08;101993.06;;;22.11;100.00
42621;BME280;28252;53.336;-6.298;2023-05-22T02:15:45;101996.81;;;22.10;100.00
42621;BME280;28252;53.336;-6.298;2023-05-22T02:16:19;101990.50;;;22.10;100.00
42621;BME280;28252;53.336;-6.298;2023-05-22T02:16:53;102002.22;;;22.10;100.00
42621;BME280;28252;53.336;-6.298;2023-05-22T02:17:26;101999.50;;;22.10;100.00
42621;BME280;28252;53.336;-6.298;2023-05-22T02:18:00;101999.50;;;22.10;100.00
42621;BME280;28252;53.336;-6.298;2023-05-22T02:18:33;101997.78;;;22.09;100.00
42621;BME280;28252;53.336;-6.298;2023-05-22T02:19:07;101995.09;;;22.09;100.00
42621;BME280;28252;53.336;-6.298;2023-05-22T02:19:39;102003.22;;;22.09;100.00
42621;BME280;28252;53.336;-6.298;2023-05-22T02:20:11;102001.34;;;22.10;100.00
42621;BME280;28252;53.336;-6.298;2023-05-22T02:20:47;101996.94;;;22.09;100.00
42621;BME280;28252;53.336;-6.298;2023-05-22T02:21:21;101995.09;;;22.09;100.00
42621;BME280;28252;53.336;-6.298;2023-05-22T02:21:59;102003.22;;;22.09;100.00
42621;BME280;28252;53.336;-6.298;2023-05-22T02:22:33;102000.50;;;22.09;100.00
42621;BME280;28252;53.336;-6.298;2023-05-22T02:23:06;101999.66;;;22.09;100.00
42621;BME280;28252;53.336;-6.298;2023-05-22T02:23:40;102004.22;;;22.08;100.00
42621;BME280;28252;53.336;-6.298;2023-05-22T02:24:11;101996.94;;;22.09;100.00
42621;BME280;28252;53.336;-6.298;2023-05-22T02:24:45;101999.66;;;22.09;100.00
42621;BME280;28252;53.336;-6.298;2023-05-22T02:25:22;101997.09;;;22.07;100.00
42621;BME280;28252;53.336;-6.298;2023-05-22T02:26:02;102001.50;;;22.08;100.00
42621;BME280;28252;53.336;-6.298;2023-05-22T02:26:40;101994.38;;;22.07;100.00
42621;BME280;28252;53.336;-6.298;2023-05-22T02:27:17;102011.50;;;22.08;100.00
42621;BME280;28252;53.336;-6.298;2023-05-22T02:27:48;101998.97;;;22.07;100.00
42621;BME280;28252;53.336;-6.298;2023-05-22T02:28:22;102003.38;;;22.08;100.00
42621;BME280;28252;53.336;-6.298;2023-05-22T02:28:58;102003.50;;;22.06;100.00
42621;BME280;28252;53.336;-6.298;2023-05-22T02:29:31;102008.94;;;22.06;100.00
42621;BME280;28252;53.336;-6.298;2023-05-22T02:30:06;102008.09;;;22.06;100.00
42621;BME280;28252;53.336;-6.298;2023-05-22T02:30:37;102007.09;;;22.07;100.00
42621;BME280;28252;53.336;-6.298;2023-05-22T02:31:14;102008.94;;;22.06;100.00
42621;BME280;28252;53.336;-6.298;2023-05-22T02:31:47;102006.22;;;22.06;100.00
42621;BME280;28252;53.336;-6.298;2023-05-22T02:32:20;102009.97;;;22.05;100.00
42621;BME280;28252;53.336;-6.298;2023-05-22T02:32:54;102002.66;;;22.06;100.00
42621;BME280;28252;53.336;-6.298;2023-05-22T02:33:29;102006.38;;;22.05;100.00
42621;BME280;28252;53.336;-6.298;2023-05-22T02:34:10;101999.97;;;22.06;100.00
42621;BME280;28252;53.336;-6.298;2023-05-22T02:34:43;102012.69;;;22.05;100.00
42621;BME280;28252;53.336;-6.298;2023-05-22T02:35:17;102007.25;;;22.05;100.00
42621;BME280;28252;53.336;-6.298;2023-05-22T02:35:49;102009.09;;;22.05;100.00
42621;BME280;28252;53.336;-6.298;2023-05-22T02:36:20;102010.97;;;22.04;100.00
42621;BME280;28252;53.336;-6.298;2023-05-22T02:36:51;102010.97;;;22.04;100.00
42621;BME280;28252;53.336;-6.298;2023-05-22T02:37:28;102008.25;;;22.04;100.00
42621;BME280;28252;53.336;-6.298;2023-05-22T02:38:04;101997.38;;;22.04;100.00
42621;BME280;28252;53.336;-6.298;2023-05-22T02:38:37;102004.69;;;22.04;100.00
42621;BME280;28252;53.336;-6.298;2023-05-22T02:39:12;102003.81;;;22.03;100.00
42621;BME280;28252;53.336;-6.298;2023-05-22T02:39:43;102010.13;;;22.04;100.00
42621;BME280;28252;53.336;-6.298;2023-05-22T02:40:15;102011.94;;;22.03;100.00
42621;BME280;28252;53.336;-6.298;2023-05-22T02:40:46;102008.41;;;22.02;100.00
42621;BME280;28252;53.336;-6.298;2023-05-22T02:41:17;102009.25;;;22.03;100.00
42621;BME280;28252;53.336;-6.298;2023-05-22T02:42:35;102011.09;;;22.02;100.00
42621;BME280;28252;53.336;-6.298;2023-05-22T02:43:08;102013.81;;;22.02;100.00
42621;BME280;28252;53.336;-6.298;2023-05-22T02:43:40;102006.72;;;22.01;100.00
42621;BME280;28252;53.336;-6.298;2023-05-22T02:44:19;102012.97;;;22.02;100.00
42621;BME280;28252;53.336;-6.298;2023-05-22T02:44:52;102007.53;;;22.02;100.00
42621;BME280;28252;53.336;-6.298;2023-05-22T02:45:25;102007.53;;;22.02;100.00
42621;BME280;28252;53.336;-6.298;2023-05-22T02:46:01;102012.97;;;22.02;100.00
42621;BME280;28252;53.336;-6.298;2023-05-22T02:46:34;102014.84;;;22.01;100.00
42621;BME280;28252;53.336;-6.298;2023-05-22T02:47:08;102011.25;;;22.01;100.00
42621;BME280;28252;53.336;-6.298;2023-05-22T02:47:41;102015.84;;;22.00;100.00
42621;BME280;28252;53.336;-6.298;2023-05-22T02:48:18;102012.28;;;22.00;100.00
42621;BME280;28252;53.336;-6.298;2023-05-22T02:48:51;102016.69;;;22.01;100.00
42621;BME280;28252;53.336;-6.298;2023-05-22T02:49:26;102011.25;;;22.01;100.00
42621;BME280;28252;53.336;-6.298;2023-05-22T02:49:59;102016.69;;;22.01;100.00
42621;BME280;28252;53.336;-6.298;2023-05-22T02:50:32;102021.25;;;22.00;100.00
42621;BME280;28252;53.336;-6.298;2023-05-22T02:51:11;102017.69;;;22.00;100.00
42621;BME280;28252;53.336;-6.298;2023-05-22T02:51:44;102017.69;;;22.00;100.00
42621;BME280;28252;53.336;-6.298;2023-05-22T02:52:21;102015.00;;;22.00;100.00
42621;BME280;28252;53.336;-6.298;2023-05-22T02:52:55;102014.13;;;21.99;100.00
42621;BME280;28252;53.336;-6.298;2023-05-22T02:53:28;102020.41;;;22.00;100.00
42621;BME280;28252;53.336;-6.298;2023-05-22T02:53:59;102020.41;;;22.00;100.00
42621;BME280;28252;53.336;-6.298;2023-05-22T02:54:35;102018.69;;;21.99;100.00
42621;BME280;28252;53.336;-6.298;2023-05-22T02:55:08;102014.13;;;21.99;100.00
42621;BME280;28252;53.336;-6.298;2023-05-22T02:55:41;102018.69;;;21.99;100.00
42621;BME280;28252;53.336;-6.298;2023-05-22T02:56:17;102015.97;;;21.99;100.00
42621;BME280;28252;53.336;-6.298;2023-05-22T02:56:50;102011.53;;;21.98;100.00
42621;BME280;28252;53.336;-6.298;2023-05-22T02:57:28;102016.97;;;21.98;100.00
42621;BME280;28252;53.336;-6.298;2023-05-22T02:58:03;102022.41;;;21.98;100.00
42621;BME280;28252;53.336;-6.298;2023-05-22T02:58:34;102016.97;;;21.98;100.00
42621;BME280;28252;53.336;-6.298;2023-05-22T02:59:09;102018.69;;;21.99;100.00
42621;BME280;28252;53.336;-6.298;2023-05-22T02:59:40;102016.97;;;21.98;100.00
42621;BME280;28252;53.336;-6.298;2023-05-22T03:00:14;102010.69;;;21.97;100.00
42621;BME280;28252;53.336;-6.298;2023-05-22T03:00:47;102020.72;;;21.97;100.00
42621;BME280;28252;53.336;-6.298;2023-05-22T03:01:25;102019.69;;;21.98;100.00
42621;BME280;28252;53.336;-6.298;2023-05-22T03:01:59;102014.44;;;21.96;100.00
42621;BME280;28252;53.336;-6.298;2023-05-22T03:02:34;102015.28;;;21.97;100.00
42621;BME280;28252;53.336;-6.298;2023-05-22T03:03:08;102021.56;;;21.97;100.00
42621;BME280;28252;53.336;-6.298;2023-05-22T03:03:39;102018.00;;;21.97;100.00
42621;BME280;28252;53.336;-6.298;2023-05-22T03:04:11;102019.88;;;21.96;100.00
42621;BME280;28252;53.336;-6.298;2023-05-22T03:04:44;102019.00;;;21.96;100.00
42621;BME280;28252;53.336;-6.298;2023-05-22T03:05:16;102014.44;;;21.96;100.00
42621;BME280;28252;53.336;-6.298;2023-05-22T03:05:47;102021.69;;;21.96;100.00
42621;BME280;28252;53.336;-6.298;2023-05-22T03:06:21;102019.88;;;21.96;100.00
42621;BME280;28252;53.336;-6.298;2023-05-22T03:06:57;102020.72;;;21.97;100.00
42621;BME280;28252;53.336;-6.298;2023-05-22T03:07:31;102017.16;;;21.96;100.00
42621;BME280;28252;53.336;-6.298;2023-05-22T03:08:05;102024.41;;;21.96;100.00
42621;BME280;28252;53.336;-6.298;2023-05-22T03:08:43;102017.31;;;21.95;100.00
42621;BME280;28252;53.336;-6.298;2023-05-22T03:09:19;102021.69;;;21.96;100.00
42621;BME280;28252;53.336;-6.298;2023-05-22T03:09:55;102029.00;;;21.95;100.00
42621;BME280;28252;53.336;-6.298;2023-05-22T03:10:28;102020.00;;;21.95;100.00
42621;BME280;28252;53.336;-6.298;2023-05-22T03:10:59;102022.72;;;21.95;100.00
42621;BME280;28252;53.336;-6.298;2023-05-22T03:11:33;102023.56;;;21.95;100.00
42621;BME280;28252;53.336;-6.298;2023-05-22T03:12:08;102024.56;;;21.94;100.00
42621;BME280;28252;53.336;-6.298;2023-05-22T03:12:44;102016.41;;;21.94;100.00
42621;BME280;28252;53.336;-6.298;2023-05-22T03:13:17;102022.88;;;21.93;100.00
42621;BME280;28252;53.336;-6.298;2023-05-22T03:13:49;102022.88;;;21.93;100.00
42621;BME280;28252;53.336;-6.298;2023-05-22T03:14:22;102025.59;;;21.93;100.00
42621;BME280;28252;53.336;-6.298;2023-05-22T03:14:58;102023.72;;;21.94;100.00
42621;BME280;28252;53.336;-6.298;2023-05-22T03:15:35;102021.16;;;21.92;100.00
42621;BME280;28252;53.336;-6.298;2023-05-22T03:16:14;102024.72;;;21.93;100.00
42621;BME280;28252;53.336;-6.298;2023-05-22T03:16:50;102027.41;;;21.93;100.00
42621;BME280;28252;53.336;-6.298;2023-05-22T03:17:26;102028.44;;;21.92;100.00
42621;BME280;28252;53.336;-6.298;2023-05-22T03:17:59;102018.44;;;21.92;100.00
42621;BME280;28252;53.336;-6.298;2023-05-22T03:18:33;102020.31;;;21.92;100.00
42621;BME280;28252;53.336;-6.298;2023-05-22T03:19:09;102020.31;;;21.92;100.00
42621;BME280;28252;53.336;-6.298;2023-05-22T03:19:43;102028.44;;;21.92;100.00